sensor_id;sensor_type;location;lat;lon;timestamp;temperature;humidity
21425;DHT22;10873;51.132;16.848;2024-01-06T00:01:22;23.20;49.20
21425;DHT22;10873;51.132;16.848;2024-01-06T00:03:48;23.20;49.20
21425;DHT22;10873;51.132;16.848;2024-01-06T00:06:14;23.20;49.20
21425;DHT22;10873;51.132;16.848;2024-01-06T00:08:40;23.20;49.20
21425;DHT22;10873;51.132;16.848;2024-01-06T00:11:06;23.20;49.30
21425;DHT22;10873;51.132;16.848;2024-01-06T00:13:32;23.20;49.30
21425;DHT22;10873;51.132;16.848;2024-01-06T00:16:00;23.20;49.30
21425;DHT22;10873;51.132;16.848;2024-01-06T00:18:26;23.20;49.30
21425;DHT22;10873;51.132;16.848;2024-01-06T00:20:52;23.20;49.30
21425;DHT22;10873;51.132;16.848;2024-01-06T00:23:19;23.20;49.30
21425;DHT22;10873;51.132;16.848;2024-01-06T00:25:45;23.30;49.30
21425;DHT22;10873;51.132;16.848;2024-01-06T00:28:11;23.30;49.30
21425;DHT22;10873;51.132;16.848;2024-01-06T00:30:37;23.30;49.30
21425;DHT22;10873;51.132;16.848;2024-01-06T00:33:05;23.30;49.30
21425;DHT22;10873;51.132;16.848;2024-01-06T00:35:31;23.30;49.30
21425;DHT22;10873;51.132;16.848;2024-01-06T00:37:57;23.30;49.30
21425;DHT22;10873;51.132;16.848;2024-01-06T00:40:25;23.30;49.30
21425;DHT22;10873;51.132;16.848;2024-01-06T00:42:51;23.20;49.20
21425;DHT22;10873;51.132;16.848;2024-01-06T00:45:17;23.20;49.20
21425;DHT22;10873;51.132;16.848;2024-01-06T00:47:43;23.20;49.20
21425;DHT22;10873;51.132;16.848;2024-01-06T00:50:11;23.20;49.50
21425;DHT22;10873;51.132;16.848;2024-01-06T00:52:38;23.20;49.30
21425;DHT22;10873;51.132;16.848;2024-01-06T00:55:04;23.30;49.30
21425;DHT22;10873;51.132;16.848;2024-01-06T00:57:30;23.30;49.30
21425;DHT22;10873;51.132;16.848;2024-01-06T00:59:56;23.30;49.30
21425;DHT22;10873;51.132;16.848;2024-01-06T01:02:22;23.30;49.20
21425;DHT22;10873;51.132;16.848;2024-01-06T01:04:48;23.30;49.90
21425;DHT22;10873;51.132;16.848;2024-01-06T01:07:15;23.30;49.20
21425;DHT22;10873;51.132;16.848;2024-01-06T01:09:42;23.30;49.10
21425;DHT22;10873;51.132;16.848;2024-01-06T01:12:11;23.30;49.10
21425;DHT22;10873;51.132;16.848;2024-01-06T01:14:38;23.30;49.10
21425;DHT22;10873;51.132;16.848;2024-01-06T01:17:04;23.30;49.10
21425;DHT22;10873;51.132;16.848;2024-01-06T01:19:30;23.30;49.00
21425;DHT22;10873;51.132;16.848;2024-01-06T01:21:58;23.30;49.00
21425;DHT22;10873;51.132;16.848;2024-01-06T01:24:26;23.30;49.70
21425;DHT22;10873;51.132;16.848;2024-01-06T01:26:52;23.30;49.00
21425;DHT22;10873;51.132;16.848;2024-01-06T01:29:21;23.30;49.00
21425;DHT22;10873;51.132;16.848;2024-01-06T01:31:49;23.30;49.10
21425;DHT22;10873;51.132;16.848;2024-01-06T01:34:15;23.30;49.10
21425;DHT22;10873;51.132;16.848;2024-01-06T01:36:41;23.30;49.00
21425;DHT22;10873;51.132;16.848;2024-01-06T01:39:08;23.30;49.70
21425;DHT22;10873;51.132;16.848;2024-01-06T01:41:36;23.30;49.00
21425;DHT22;10873;51.132;16.848;2024-01-06T01:44:02;23.30;48.90
21425;DHT22;10873;51.132;16.848;2024-01-06T01:46:30;23.30;48.90
21425;DHT22;10873;51.132;16.848;2024-01-06T01:48:57;23.30;48.90
21425;DHT22;10873;51.132;16.848;2024-01-06T01:51:27;23.30;48.90
21425;DHT22;10873;51.132;16.848;2024-01-06T01:53:54;23.30;48.80
21425;DHT22;10873;51.132;16.848;2024-01-06T01:56:21;23.30;48.80
21425;DHT22;10873;51.132;16.848;2024-01-06T01:58:50;23.30;48.80
21425;DHT22;10873;51.132;16.848;2024-01-06T02:01:17;23.30;48.80
21425;DHT22;10873;51.132;16.848;2024-01-06T02:03:43;23.30;48.80
21425;DHT22;10873;51.132;16.848;2024-01-06T02:06:11;23.30;48.80
21425;DHT22;10873;51.132;16.848;2024-01-06T02:08:37;23.30;48.80
21425;DHT22;10873;51.132;16.848;2024-01-06T02:11:08;23.30;48.90
21425;DHT22;10873;51.132;16.848;2024-01-06T02:13:34;23.30;48.80
21425;DHT22;10873;51.132;16.848;2024-01-06T02:16:05;23.30;48.80
21425;DHT22;10873;51.132;16.848;2024-01-06T02:18:32;23.30;48.80
21425;DHT22;10873;51.132;16.848;2024-01-06T02:20:59;23.30;48.70
21425;DHT22;10873;51.132;16.848;2024-01-06T02:23:27;23.30;48.70
21425;DHT22;10873;51.132;16.848;2024-01-06T02:25:53;23.30;48.70
21425;DHT22;10873;51.132;16.848;2024-01-06T02:28:19;23.30;48.70
21425;DHT22;10873;51.132;16.848;2024-01-06T02:30:46;23.30;48.70
21425;DHT22;10873;51.132;16.848;2024-01-06T02:33:12;23.30;48.70
21425;DHT22;10873;51.132;16.848;2024-01-06T02:35:38;23.30;48.70
21425;DHT22;10873;51.132;16.848;2024-01-06T02:38:06;23.30;48.60
21425;DHT22;10873;51.132;16.848;2024-01-06T02:40:33;23.30;48.70
21425;DHT22;10873;51.132;16.848;2024-01-06T02:42:59;23.30;48.70
21425;DHT22;10873;51.132;16.848;2024-01-06T02:45:25;23.30;48.70
21425;DHT22;10873;51.132;16.848;2024-01-06T02:47:51;23.30;48.60
21425;DHT22;10873;51.132;16.848;2024-01-06T02:50:17;23.30;48.60
21425;DHT22;10873;51.132;16.848;2024-01-06T02:52:44;23.30;48.50
21425;DHT22;10873;51.132;16.848;2024-01-06T02:55:11;23.30;48.50
21425;DHT22;10873;51.132;16.848;2024-01-06T02:57:38;23.30;48.50
21425;DHT22;10873;51.132;16.848;2024-01-06T03:00:08;23.30;48.40
21425;DHT22;10873;51.132;16.848;2024-01-06T03:02:34;23.30;48.50
21425;DHT22;10873;51.132;16.848;2024-01-06T03:05:02;23.30;48.40
21425;DHT22;10873;51.132;16.848;2024-01-06T03:07:28;23.30;48.40
21425;DHT22;10873;51.132;16.848;2024-01-06T03:09:54;23.30;48.40
21425;DHT22;10873;51.132;16.848;2024-01-06T03:12:20;23.30;48.40
21425;DHT22;10873;51.132;16.848;2024-01-06T03:14:47;23.30;48.40
21425;DHT22;10873;51.132;16.848;2024-01-06T03:17:17;23.30;48.50
21425;DHT22;10873;51.132;16.848;2024-01-06T03:19:44;23.30;48.40
21425;DHT22;10873;51.132;16.848;2024-01-06T03:22:09;23.30;48.40
21425;DHT22;10873;51.132;16.848;2024-01-06T03:24:36;23.30;48.40
21425;DHT22;10873;51.132;16.848;2024-01-06T03:27:06;23.30;48.40
21425;DHT22;10873;51.132;16.848;2024-01-06T03:29:37;23.30;48.40
21425;DHT22;10873;51.132;16.848;2024-01-06T03:32:06;23.30;48.40
21425;DHT22;10873;51.132;16.848;2024-01-06T03:34:32;23.40;49.10
21425;DHT22;10873;51.132;16.848;2024-01-06T03:36:58;23.40;48.40
21425;DHT22;10873;51.132;16.848;2024-01-06T03:39:25;23.30;48.30
21425;DHT22;10873;51.132;16.848;2024-01-06T03:41:51;23.30;48.40
21425;DHT22;10873;51.132;16.848;2024-01-06T03:44:19;23.30;48.40
21425;DHT22;10873;51.132;16.848;2024-01-06T03:46:47;23.30;48.40
21425;DHT22;10873;51.132;16.848;2024-01-06T03:49:15;23.30;48.50
21425;DHT22;10873;51.132;16.848;2024-01-06T03:51:44;23.30;48.50
21425;DHT22;10873;51.132;16.848;2024-01-06T03:54:10;23.40;48.50
21425;DHT22;10873;51.132;16.848;2024-01-06T03:56:36;23.40;48.50
21425;DHT22;10873;51.132;16.848;2024-01-06T03:59:03;23.40;48.50
21425;DHT22;10873;51.132;16.848;2024-01-06T04:01:29;23.40;48.50
21425;DHT22;10873;51.132;16.848;2024-01-06T04:04:01;23.30;48.40
21425;DHT22;10873;51.132;16.848;2024-01-06T04:06:29;23.40;48.40
21425;DHT22;10873;51.132;16.848;2024-01-06T04:09:02;23.40;48.40
21425;DHT22;10873;51.132;16.848;2024-01-06T04:11:28;23.30;48.40
21425;DHT22;10873;51.132;16.848;2024-01-06T04:13:55;23.30;48.40
21425;DHT22;10873;51.132;16.848;2024-01-06T04:16:23;23.30;48.40
21425;DHT22;10873;51.132;16.848;2024-01-06T04:18:51;23.30;48.50
21425;DHT22;10873;51.132;16.848;2024-01-06T04:21:17;23.30;48.50
21425;DHT22;10873;51.132;16.848;2024-01-06T04:23:45;23.40;48.50
21425;DHT22;10873;51.132;16.848;2024-01-06T04:26:11;23.40;48.50
21425;DHT22;10873;51.132;16.848;2024-01-06T04:28:38;23.40;48.50
21425;DHT22;10873;51.132;16.848;2024-01-06T04:31:04;23.40;48.40
21425;DHT22;10873;51.132;16.848;2024-01-06T04:33:30;23.40;48.40
21425;DHT22;10873;51.132;16.848;2024-01-06T04:35:56;23.40;48.40
21425;DHT22;10873;51.132;16.848;2024-01-06T04:38:24;23.40;48.40
21425;DHT22;10873;51.132;16.848;2024-01-06T04:40:52;23.40;48.40
21425;DHT22;10873;51.132;16.848;2024-01-06T04:43:18;23.40;48.30
21425;DHT22;10873;51.132;16.848;2024-01-06T04:45:44;23.30;48.30
21425;DHT22;10873;51.132;16.848;2024-01-06T04:48:10;23.30;48.30
21425;DHT22;10873;51.132;16.848;2024-01-06T04:50:36;23.30;48.20
21425;DHT22;10873;51.132;16.848;2024-01-06T04:53:02;23.30;48.30
21425;DHT22;10873;51.132;16.848;2024-01-06T04:55:28;23.30;48.30
21425;DHT22;10873;51.132;16.848;2024-01-06T04:57:56;23.30;48.30
21425;DHT22;10873;51.132;16.848;2024-01-06T05:00:22;23.30;48.30
21425;DHT22;10873;51.132;16.848;2024-01-06T05:02:48;23.30;48.30
21425;DHT22;10873;51.132;16.848;2024-01-06T05:05:14;23.30;48.30
21425;DHT22;10873;51.132;16.848;2024-01-06T05:07:40;23.30;48.30
21425;DHT22;10873;51.132;16.848;2024-01-06T05:10:07;23.30;48.30
21425;DHT22;10873;51.132;16.848;2024-01-06T05:12:34;23.30;48.30
21425;DHT22;10873;51.132;16.848;2024-01-06T05:15:02;23.30;48.20
21425;DHT22;10873;51.132;16.848;2024-01-06T05:17:28;23.30;48.20
21425;DHT22;10873;51.132;16.848;2024-01-06T05:19:55;23.30;48.20
21425;DHT22;10873;51.132;16.848;2024-01-06T05:22:21;23.30;48.20
21425;DHT22;10873;51.132;16.848;2024-01-06T05:24:47;23.30;48.20
21425;DHT22;10873;51.132;16.848;2024-01-06T05:27:13;23.30;48.20
21425;DHT22;10873;51.132;16.848;2024-01-06T05:29:39;23.30;48.10
21425;DHT22;10873;51.132;16.848;2024-01-06T05:32:07;23.30;48.10
21425;DHT22;10873;51.132;16.848;2024-01-06T05:34:33;23.30;48.10
21425;DHT22;10873;51.132;16.848;2024-01-06T05:36:59;23.40;48.10
21425;DHT22;10873;51.132;16.848;2024-01-06T05:39:26;23.40;48.10
21425;DHT22;10873;51.132;16.848;2024-01-06T05:41:53;23.30;48.00
21425;DHT22;10873;51.132;16.848;2024-01-06T05:44:19;23.40;48.10
21425;DHT22;10873;51.132;16.848;2024-01-06T05:46:49;23.40;48.00
21425;DHT22;10873;51.132;16.848;2024-01-06T05:49:18;23.40;48.00
21425;DHT22;10873;51.132;16.848;2024-01-06T05:51:45;23.40;47.90
21425;DHT22;10873;51.132;16.848;2024-01-06T05:54:20;23.40;47.90
21425;DHT22;10873;51.132;16.848;2024-01-06T05:56:51;23.40;47.90
21425;DHT22;10873;51.132;16.848;2024-01-06T05:59:17;23.40;47.90
21425;DHT22;10873;51.132;16.848;2024-01-06T06:01:44;23.40;47.90
21425;DHT22;10873;51.132;16.848;2024-01-06T06:04:10;23.30;47.80
21425;DHT22;10873;51.132;16.848;2024-01-06T06:06:39;23.40;47.80
21425;DHT22;10873;51.132;16.848;2024-01-06T06:09:05;23.40;47.90
21425;DHT22;10873;51.132;16.848;2024-01-06T06:11:33;23.40;47.90
21425;DHT22;10873;51.132;16.848;2024-01-06T06:13:59;23.40;48.00
21425;DHT22;10873;51.132;16.848;2024-01-06T06:16:25;23.40;48.00
21425;DHT22;10873;51.132;16.848;2024-01-06T06:18:54;23.40;48.00
21425;DHT22;10873;51.132;16.848;2024-01-06T06:21:21;23.40;48.00
21425;DHT22;10873;51.132;16.848;2024-01-06T06:23:48;23.40;48.00
21425;DHT22;10873;51.132;16.848;2024-01-06T06:26:16;23.40;47.90
21425;DHT22;10873;51.132;16.848;2024-01-06T06:28:42;23.40;47.90
21425;DHT22;10873;51.132;16.848;2024-01-06T06:31:08;23.40;47.90
21425;DHT22;10873;51.132;16.848;2024-01-06T06:33:34;23.40;47.90
21425;DHT22;10873;51.132;16.848;2024-01-06T06:36:07;23.40;47.90
21425;DHT22;10873;51.132;16.848;2024-01-06T06:38:34;23.40;47.90
21425;DHT22;10873;51.132;16.848;2024-01-06T06:41:02;23.40;47.80
21425;DHT22;10873;51.132;16.848;2024-01-06T06:43:36;23.40;47.80
21425;DHT22;10873;51.132;16.848;2024-01-06T06:46:08;23.40;47.80
21425;DHT22;10873;51.132;16.848;2024-01-06T06:48:34;23.40;47.80
21425;DHT22;10873;51.132;16.848;2024-01-06T06:51:02;23.40;47.80
21425;DHT22;10873;51.132;16.848;2024-01-06T06:53:28;23.40;47.80
21425;DHT22;10873;51.132;16.848;2024-01-06T06:55:54;23.40;47.80
21425;DHT22;10873;51.132;16.848;2024-01-06T06:58:21;23.40;47.90
21425;DHT22;10873;51.132;16.848;2024-01-06T07:00:47;23.40;47.90
21425;DHT22;10873;51.132;16.848;2024-01-06T07:03:13;23.40;47.90
21425;DHT22;10873;51.132;16.848;2024-01-06T07:05:40;23.40;48.00
21425;DHT22;10873;51.132;16.848;2024-01-06T07:08:06;23.40;47.90
21425;DHT22;10873;51.132;16.848;2024-01-06T07:10:32;23.40;48.00
21425;DHT22;10873;51.132;16.848;2024-01-06T07:12:58;23.40;47.90
21425;DHT22;10873;51.132;16.848;2024-01-06T07:15:25;23.40;47.90
21425;DHT22;10873;51.132;16.848;2024-01-06T07:17:51;23.40;47.80
21425;DHT22;10873;51.132;16.848;2024-01-06T07:20:17;23.40;47.80
21425;DHT22;10873;51.132;16.848;2024-01-06T07:22:44;23.40;47.80
21425;DHT22;10873;51.132;16.848;2024-01-06T07:25:10;23.40;47.80
21425;DHT22;10873;51.132;16.848;2024-01-06T07:27:36;23.40;47.80
21425;DHT22;10873;51.132;16.848;2024-01-06T07:30:02;23.40;48.50
21425;DHT22;10873;51.132;16.848;2024-01-06T07:32:31;23.40;47.90
21425;DHT22;10873;51.132;16.848;2024-01-06T07:34:56;23.30;47.90
21425;DHT22;10873;51.132;16.848;2024-01-06T07:37:24;23.40;47.90
21425;DHT22;10873;51.132;16.848;2024-01-06T07:39:54;23.40;47.90
21425;DHT22;10873;51.132;16.848;2024-01-06T07:42:20;23.40;47.90
21425;DHT22;10873;51.132;16.848;2024-01-06T07:44:46;23.40;47.90
21425;DHT22;10873;51.132;16.848;2024-01-06T07:47:12;23.40;47.90
21425;DHT22;10873;51.132;16.848;2024-01-06T07:49:39;23.50;48.00
21425;DHT22;10873;51.132;16.848;2024-01-06T07:52:05;23.40;47.80
21425;DHT22;10873;51.132;16.848;2024-01-06T07:54:31;23.40;47.90
21425;DHT22;10873;51.132;16.848;2024-01-06T07:56:57;23.40;48.00
21425;DHT22;10873;51.132;16.848;2024-01-06T07:59:23;23.40;48.10
21425;DHT22;10873;51.132;16.848;2024-01-06T08:01:49;23.40;48.20
21425;DHT22;10873;51.132;16.848;2024-01-06T08:04:15;23.40;48.40
21425;DHT22;10873;51.132;16.848;2024-01-06T08:06:43;23.40;49.50
21425;DHT22;10873;51.132;16.848;2024-01-06T08:09:09;23.40;50.30
21425;DHT22;10873;51.132;16.848;2024-01-06T08:11:35;23.40;50.70
21425;DHT22;10873;51.132;16.848;2024-01-06T08:14:01;23.50;51.10
21425;DHT22;10873;51.132;16.848;2024-01-06T08:16:28;23.50;51.20
21425;DHT22;10873;51.132;16.848;2024-01-06T08:18:54;23.50;51.10
21425;DHT22;10873;51.132;16.848;2024-01-06T08:21:20;23.50;51.00
21425;DHT22;10873;51.132;16.848;2024-01-06T08:23:47;23.50;51.00
21425;DHT22;10873;51.132;16.848;2024-01-06T08:26:13;23.50;51.20
21425;DHT22;10873;51.132;16.848;2024-01-06T08:28:39;23.50;51.10
21425;DHT22;10873;51.132;16.848;2024-01-06T08:31:05;23.50;50.90
21425;DHT22;10873;51.132;16.848;2024-01-06T08:33:31;23.50;51.50
21425;DHT22;10873;51.132;16.848;2024-01-06T08:35:57;23.50;50.80
21425;DHT22;10873;51.132;16.848;2024-01-06T08:38:23;23.50;50.60
21425;DHT22;10873;51.132;16.848;2024-01-06T08:40:51;23.50;50.50
21425;DHT22;10873;51.132;16.848;2024-01-06T08:43:19;23.50;50.20
21425;DHT22;10873;51.132;16.848;2024-01-06T08:45:45;23.50;50.30
21425;DHT22;10873;51.132;16.848;2024-01-06T08:48:11;23.50;50.20
21425;DHT22;10873;51.132;16.848;2024-01-06T08:50:39;23.50;50.10
21425;DHT22;10873;51.132;16.848;2024-01-06T08:53:05;23.60;50.10
21425;DHT22;10873;51.132;16.848;2024-01-06T08:55:31;23.60;50.00
21425;DHT22;10873;51.132;16.848;2024-01-06T08:57:58;23.60;50.00
21425;DHT22;10873;51.132;16.848;2024-01-06T09:00:24;23.60;50.10
21425;DHT22;10873;51.132;16.848;2024-01-06T09:02:50;23.60;50.10
21425;DHT22;10873;51.132;16.848;2024-01-06T09:05:16;23.60;50.10
21425;DHT22;10873;51.132;16.848;2024-01-06T09:07:42;23.60;50.10
21425;DHT22;10873;51.132;16.848;2024-01-06T09:10:09;23.60;50.10
21425;DHT22;10873;51.132;16.848;2024-01-06T09:12:35;23.60;50.10
21425;DHT22;10873;51.132;16.848;2024-01-06T09:15:03;23.60;50.10
21425;DHT22;10873;51.132;16.848;2024-01-06T09:17:29;23.60;50.00
21425;DHT22;10873;51.132;16.848;2024-01-06T09:19:55;23.60;50.00
21425;DHT22;10873;51.132;16.848;2024-01-06T09:22:21;23.60;50.00
21425;DHT22;10873;51.132;16.848;2024-01-06T09:24:47;23.60;50.00
21425;DHT22;10873;51.132;16.848;2024-01-06T09:27:13;23.70;50.00
21425;DHT22;10873;51.132;16.848;2024-01-06T09:29:40;23.70;50.00
21425;DHT22;10873;51.132;16.848;2024-01-06T09:32:08;23.70;50.00
21425;DHT22;10873;51.132;16.848;2024-01-06T09:34:34;23.70;50.00
21425;DHT22;10873;51.132;16.848;2024-01-06T09:37:00;23.70;49.90
21425;DHT22;10873;51.132;16.848;2024-01-06T09:39:27;23.70;49.80
21425;DHT22;10873;51.132;16.848;2024-01-06T09:41:53;23.70;49.80
21425;DHT22;10873;51.132;16.848;2024-01-06T09:44:19;23.70;49.80
21425;DHT22;10873;51.132;16.848;2024-01-06T09:46:45;23.70;49.80
21425;DHT22;10873;51.132;16.848;2024-01-06T09:49:13;23.70;49.70
21425;DHT22;10873;51.132;16.848;2024-01-06T09:51:40;23.70;49.70
21425;DHT22;10873;51.132;16.848;2024-01-06T09:54:09;23.70;49.70
21425;DHT22;10873;51.132;16.848;2024-01-06T09:56:35;23.70;49.60
21425;DHT22;10873;51.132;16.848;2024-01-06T09:59:01;23.70;49.70
21425;DHT22;10873;51.132;16.848;2024-01-06T10:01:27;23.70;49.60
21425;DHT22;10873;51.132;16.848;2024-01-06T10:03:54;23.70;49.60
21425;DHT22;10873;51.132;16.848;2024-01-06T10:06:21;23.70;50.30
21425;DHT22;10873;51.132;16.848;2024-01-06T10:08:49;23.70;49.70
21425;DHT22;10873;51.132;16.848;2024-01-06T10:11:15;23.70;49.60
21425;DHT22;10873;51.132;16.848;2024-01-06T10:13:41;23.70;49.50
21425;DHT22;10873;51.132;16.848;2024-01-06T10:16:07;23.70;49.50
21425;DHT22;10873;51.132;16.848;2024-01-06T10:18:34;23.70;49.50
21425;DHT22;10873;51.132;16.848;2024-01-06T10:21:03;23.70;49.50
21425;DHT22;10873;51.132;16.848;2024-01-06T10:23:32;23.70;49.50
21425;DHT22;10873;51.132;16.848;2024-01-06T10:25:58;23.70;49.50
21425;DHT22;10873;51.132;16.848;2024-01-06T10:28:25;23.70;49.50
21425;DHT22;10873;51.132;16.848;2024-01-06T10:30:52;23.70;49.50
21425;DHT22;10873;51.132;16.848;2024-01-06T10:33:19;23.70;49.40
21425;DHT22;10873;51.132;16.848;2024-01-06T10:35:46;23.70;49.40
21425;DHT22;10873;51.132;16.848;2024-01-06T10:38:13;23.70;49.30
21425;DHT22;10873;51.132;16.848;2024-01-06T10:40:40;23.70;49.30
21425;DHT22;10873;51.132;16.848;2024-01-06T10:43:22;23.70;49.30
21425;DHT22;10873;51.132;16.848;2024-01-06T10:45:50;23.70;49.30
21425;DHT22;10873;51.132;16.848;2024-01-06T10:48:19;23.70;49.30
21425;DHT22;10873;51.132;16.848;2024-01-06T10:50:47;23.70;49.30
21425;DHT22;10873;51.132;16.848;2024-01-06T10:53:15;23.70;49.50
21425;DHT22;10873;51.132;16.848;2024-01-06T10:55:45;23.70;50.00
21425;DHT22;10873;51.132;16.848;2024-01-06T10:58:12;23.70;50.50
21425;DHT22;10873;51.132;16.848;2024-01-06T11:00:42;23.70;51.50
21425;DHT22;10873;51.132;16.848;2024-01-06T11:03:09;23.70;51.70
21425;DHT22;10873;51.132;16.848;2024-01-06T11:05:35;23.70;52.00
21425;DHT22;10873;51.132;16.848;2024-01-06T11:08:03;23.70;52.50
21425;DHT22;10873;51.132;16.848;2024-01-06T11:10:30;23.70;52.60
21425;DHT22;10873;51.132;16.848;2024-01-06T11:13:13;23.70;51.80
21425;DHT22;10873;51.132;16.848;2024-01-06T11:15:40;23.80;52.40
21425;DHT22;10873;51.132;16.848;2024-01-06T11:18:07;23.80;55.40
21425;DHT22;10873;51.132;16.848;2024-01-06T11:20:33;23.90;59.40
21425;DHT22;10873;51.132;16.848;2024-01-06T11:23:17;24.20;60.30
21425;DHT22;10873;51.132;16.848;2024-01-06T11:25:45;24.60;60.80
21425;DHT22;10873;51.132;16.848;2024-01-06T11:28:13;24.90;61.20
21425;DHT22;10873;51.132;16.848;2024-01-06T11:30:39;25.40;61.60
21425;DHT22;10873;51.132;16.848;2024-01-06T11:33:06;25.90;61.10
21425;DHT22;10873;51.132;16.848;2024-01-06T11:35:34;26.30;60.40
21425;DHT22;10873;51.132;16.848;2024-01-06T11:38:03;26.70;60.40
21425;DHT22;10873;51.132;16.848;2024-01-06T11:40:34;27.10;60.40
21425;DHT22;10873;51.132;16.848;2024-01-06T11:43:02;27.50;60.00
21425;DHT22;10873;51.132;16.848;2024-01-06T11:45:30;27.90;59.60
21425;DHT22;10873;51.132;16.848;2024-01-06T11:47:59;28.20;59.30
21425;DHT22;10873;51.132;16.848;2024-01-06T11:50:29;28.50;59.10
21425;DHT22;10873;51.132;16.848;2024-01-06T11:52:56;28.70;58.50
21425;DHT22;10873;51.132;16.848;2024-01-06T11:55:22;28.90;58.10
21425;DHT22;10873;51.132;16.848;2024-01-06T11:57:48;29.10;57.70
21425;DHT22;10873;51.132;16.848;2024-01-06T12:00:16;29.30;57.10
21425;DHT22;10873;51.132;16.848;2024-01-06T12:02:43;29.50;56.60
21425;DHT22;10873;51.132;16.848;2024-01-06T12:05:14;29.70;56.00
21425;DHT22;10873;51.132;16.848;2024-01-06T12:07:41;29.90;55.40
21425;DHT22;10873;51.132;16.848;2024-01-06T12:10:09;30.00;54.80
21425;DHT22;10873;51.132;16.848;2024-01-06T12:12:35;30.20;54.20
21425;DHT22;10873;51.132;16.848;2024-01-06T12:15:01;30.30;53.60
21425;DHT22;10873;51.132;16.848;2024-01-06T12:17:31;30.30;53.30
21425;DHT22;10873;51.132;16.848;2024-01-06T12:19:58;30.50;52.80
21425;DHT22;10873;51.132;16.848;2024-01-06T12:22:26;30.60;52.40
21425;DHT22;10873;51.132;16.848;2024-01-06T12:24:52;30.70;52.10
21425;DHT22;10873;51.132;16.848;2024-01-06T12:27:18;30.80;51.80
21425;DHT22;10873;51.132;16.848;2024-01-06T12:29:47;31.00;51.50
21425;DHT22;10873;51.132;16.848;2024-01-06T12:32:13;31.10;51.20
21425;DHT22;10873;51.132;16.848;2024-01-06T12:34:39;31.20;51.00
21425;DHT22;10873;51.132;16.848;2024-01-06T12:37:07;31.30;50.80
21425;DHT22;10873;51.132;16.848;2024-01-06T12:39:33;31.40;50.60
21425;DHT22;10873;51.132;16.848;2024-01-06T12:42:01;31.50;50.30
21425;DHT22;10873;51.132;16.848;2024-01-06T12:44:27;31.50;50.80
21425;DHT22;10873;51.132;16.848;2024-01-06T12:46:54;31.20;51.80
21425;DHT22;10873;51.132;16.848;2024-01-06T12:49:20;30.90;51.70
21425;DHT22;10873;51.132;16.848;2024-01-06T12:51:46;30.50;51.60
21425;DHT22;10873;51.132;16.848;2024-01-06T12:54:14;30.10;51.50
21425;DHT22;10873;51.132;16.848;2024-01-06T12:56:40;29.80;51.50
21425;DHT22;10873;51.132;16.848;2024-01-06T12:59:06;29.50;51.70
21425;DHT22;10873;51.132;16.848;2024-01-06T13:01:33;29.20;50.20
21425;DHT22;10873;51.132;16.848;2024-01-06T13:03:59;29.00;49.70
21425;DHT22;10873;51.132;16.848;2024-01-06T13:06:27;28.70;49.40
21425;DHT22;10873;51.132;16.848;2024-01-06T13:08:53;28.50;48.80
21425;DHT22;10873;51.132;16.848;2024-01-06T13:11:21;28.30;51.00
21425;DHT22;10873;51.132;16.848;2024-01-06T13:13:47;28.20;52.30
21425;DHT22;10873;51.132;16.848;2024-01-06T13:16:13;28.10;53.70
21425;DHT22;10873;51.132;16.848;2024-01-06T13:18:39;28.20;55.30
21425;DHT22;10873;51.132;16.848;2024-01-06T13:21:05;28.50;55.80
21425;DHT22;10873;51.132;16.848;2024-01-06T13:23:32;29.00;56.70
21425;DHT22;10873;51.132;16.848;2024-01-06T13:26:00;29.40;56.10
21425;DHT22;10873;51.132;16.848;2024-01-06T13:28:27;29.70;56.00
21425;DHT22;10873;51.132;16.848;2024-01-06T13:30:53;30.00;56.20
21425;DHT22;10873;51.132;16.848;2024-01-06T13:33:19;30.40;56.20
21425;DHT22;10873;51.132;16.848;2024-01-06T13:35:46;30.60;57.30
21425;DHT22;10873;51.132;16.848;2024-01-06T13:38:12;30.40;56.30
21425;DHT22;10873;51.132;16.848;2024-01-06T13:40:38;30.20;56.70
21425;DHT22;10873;51.132;16.848;2024-01-06T13:43:04;30.10;57.60
21425;DHT22;10873;51.132;16.848;2024-01-06T13:45:36;30.20;57.20
21425;DHT22;10873;51.132;16.848;2024-01-06T13:48:03;30.40;56.50
21425;DHT22;10873;51.132;16.848;2024-01-06T13:50:29;30.60;55.90
21425;DHT22;10873;51.132;16.848;2024-01-06T13:52:55;30.80;56.20
21425;DHT22;10873;51.132;16.848;2024-01-06T13:55:21;30.60;56.50
21425;DHT22;10873;51.132;16.848;2024-01-06T13:57:47;30.40;55.70
21425;DHT22;10873;51.132;16.848;2024-01-06T14:00:14;30.30;56.30
21425;DHT22;10873;51.132;16.848;2024-01-06T14:02:45;30.40;55.50
21425;DHT22;10873;51.132;16.848;2024-01-06T14:05:13;30.60;54.40
21425;DHT22;10873;51.132;16.848;2024-01-06T14:07:39;30.80;53.50
21425;DHT22;10873;51.132;16.848;2024-01-06T14:10:11;31.00;52.70
21425;DHT22;10873;51.132;16.848;2024-01-06T14:12:37;31.20;52.00
21425;DHT22;10873;51.132;16.848;2024-01-06T14:15:04;31.40;51.40
21425;DHT22;10873;51.132;16.848;2024-01-06T14:17:31;31.60;51.00
21425;DHT22;10873;51.132;16.848;2024-01-06T14:19:59;31.70;50.40
21425;DHT22;10873;51.132;16.848;2024-01-06T14:22:25;31.80;50.00
21425;DHT22;10873;51.132;16.848;2024-01-06T14:24:52;32.00;49.70
21425;DHT22;10873;51.132;16.848;2024-01-06T14:27:18;32.10;50.40
21425;DHT22;10873;51.132;16.848;2024-01-06T14:29:45;31.90;51.30
21425;DHT22;10873;51.132;16.848;2024-01-06T14:32:12;31.50;50.70
21425;DHT22;10873;51.132;16.848;2024-01-06T14:34:39;31.20;52.10
21425;DHT22;10873;51.132;16.848;2024-01-06T14:37:07;30.80;51.60
21425;DHT22;10873;51.132;16.848;2024-01-06T14:39:34;30.50;51.50
21425;DHT22;10873;51.132;16.848;2024-01-06T14:42:02;30.20;51.60
21425;DHT22;10873;51.132;16.848;2024-01-06T14:44:28;29.90;51.60
21425;DHT22;10873;51.132;16.848;2024-01-06T14:46:55;29.70;50.70
21425;DHT22;10873;51.132;16.848;2024-01-06T14:49:22;29.50;48.30
21425;DHT22;10873;51.132;16.848;2024-01-06T14:51:47;29.20;47.50
21425;DHT22;10873;51.132;16.848;2024-01-06T14:54:15;29.10;47.80
21425;DHT22;10873;51.132;16.848;2024-01-06T14:56:41;28.80;46.70
21425;DHT22;10873;51.132;16.848;2024-01-06T14:59:10;28.70;46.50
21425;DHT22;10873;51.132;16.848;2024-01-06T15:01:36;28.50;46.60
21425;DHT22;10873;51.132;16.848;2024-01-06T15:04:03;28.40;46.30
21425;DHT22;10873;51.132;16.848;2024-01-06T15:06:29;28.20;46.10
21425;DHT22;10873;51.132;16.848;2024-01-06T15:08:56;28.10;46.00
21425;DHT22;10873;51.132;16.848;2024-01-06T15:11:23;28.10;46.00
21425;DHT22;10873;51.132;16.848;2024-01-06T15:13:49;27.90;45.70